sensor_id;sensor_type;location;lat;lon;timestamp;temperature;humidity
21335;DHT22;10826;52.536;13.432;2022-12-16T00:02:02;0.80;41.00
21335;DHT22;10826;52.536;13.432;2022-12-16T00:04:29;0.80;41.10
21335;DHT22;10826;52.536;13.432;2022-12-16T00:06:55;0.70;41.20
21335;DHT22;10826;52.536;13.432;2022-12-16T00:09:21;0.70;41.20
21335;DHT22;10826;52.536;13.432;2022-12-16T00:11:46;0.70;41.30
21335;DHT22;10826;52.536;13.432;2022-12-16T00:14:12;0.70;41.30
21335;DHT22;10826;52.536;13.432;2022-12-16T00:16:38;0.70;41.30
21335;DHT22;10826;52.536;13.432;2022-12-16T00:19:04;0.60;41.30
21335;DHT22;10826;52.536;13.432;2022-12-16T00:21:30;0.60;41.30
21335;DHT22;10826;52.536;13.432;2022-12-16T00:23:56;0.60;41.20
21335;DHT22;10826;52.536;13.432;2022-12-16T00:26:22;0.50;41.20
21335;DHT22;10826;52.536;13.432;2022-12-16T00:28:48;0.50;41.30
21335;DHT22;10826;52.536;13.432;2022-12-16T00:31:14;0.50;41.30
21335;DHT22;10826;52.536;13.432;2022-12-16T00:33:40;0.50;41.20
21335;DHT22;10826;52.536;13.432;2022-12-16T00:36:07;0.40;41.10
21335;DHT22;10826;52.536;13.432;2022-12-16T00:38:33;0.40;41.20
21335;DHT22;10826;52.536;13.432;2022-12-16T00:40:59;0.30;41.30
21335;DHT22;10826;52.536;13.432;2022-12-16T00:43:25;0.40;41.50
21335;DHT22;10826;52.536;13.432;2022-12-16T00:45:50;0.40;41.60
21335;DHT22;10826;52.536;13.432;2022-12-16T00:48:17;0.30;41.60
21335;DHT22;10826;52.536;13.432;2022-12-16T00:50:51;0.30;41.60
21335;DHT22;10826;52.536;13.432;2022-12-16T00:53:22;0.40;41.60
21335;DHT22;10826;52.536;13.432;2022-12-16T00:55:50;0.40;41.70
21335;DHT22;10826;52.536;13.432;2022-12-16T00:58:16;0.40;41.70
21335;DHT22;10826;52.536;13.432;2022-12-16T01:00:43;0.40;41.80
21335;DHT22;10826;52.536;13.432;2022-12-16T01:03:09;0.40;41.60
21335;DHT22;10826;52.536;13.432;2022-12-16T01:05:37;0.50;41.70
21335;DHT22;10826;52.536;13.432;2022-12-16T01:08:03;0.50;41.60
21335;DHT22;10826;52.536;13.432;2022-12-16T01:10:29;0.50;41.60
21335;DHT22;10826;52.536;13.432;2022-12-16T01:12:55;0.50;41.70
21335;DHT22;10826;52.536;13.432;2022-12-16T01:15:20;0.50;41.50
21335;DHT22;10826;52.536;13.432;2022-12-16T01:17:46;0.50;41.40
21335;DHT22;10826;52.536;13.432;2022-12-16T01:20:12;0.60;41.40
21335;DHT22;10826;52.536;13.432;2022-12-16T01:22:38;0.60;41.30
21335;DHT22;10826;52.536;13.432;2022-12-16T01:25:05;0.60;41.30
21335;DHT22;10826;52.536;13.432;2022-12-16T01:27:31;0.60;41.10
21335;DHT22;10826;52.536;13.432;2022-12-16T01:29:57;0.60;41.10
21335;DHT22;10826;52.536;13.432;2022-12-16T01:32:23;0.60;41.00
21335;DHT22;10826;52.536;13.432;2022-12-16T01:34:52;0.60;40.90
21335;DHT22;10826;52.536;13.432;2022-12-16T01:37:19;0.60;40.80
21335;DHT22;10826;52.536;13.432;2022-12-16T01:39:45;0.60;40.80
21335;DHT22;10826;52.536;13.432;2022-12-16T01:42:17;0.60;40.80
21335;DHT22;10826;52.536;13.432;2022-12-16T01:44:46;0.60;40.90
21335;DHT22;10826;52.536;13.432;2022-12-16T01:47:23;0.50;40.90
21335;DHT22;10826;52.536;13.432;2022-12-16T01:52:32;0.60;40.70
21335;DHT22;10826;52.536;13.432;2022-12-16T01:55:27;0.60;40.70
21335;DHT22;10826;52.536;13.432;2022-12-16T01:58:01;0.50;40.60
21335;DHT22;10826;52.536;13.432;2022-12-16T02:00:33;0.50;40.50
21335;DHT22;10826;52.536;13.432;2022-12-16T02:03:00;0.40;40.40
21335;DHT22;10826;52.536;13.432;2022-12-16T02:05:27;0.40;40.40
21335;DHT22;10826;52.536;13.432;2022-12-16T02:08:01;0.30;40.40
21335;DHT22;10826;52.536;13.432;2022-12-16T02:10:51;0.30;40.40
21335;DHT22;10826;52.536;13.432;2022-12-16T02:13:59;0.20;40.40
21335;DHT22;10826;52.536;13.432;2022-12-16T02:16:38;0.10;40.70
21335;DHT22;10826;52.536;13.432;2022-12-16T02:19:59;0.10;41.00
21335;DHT22;10826;52.536;13.432;2022-12-16T02:23:10;0.10;41.10
21335;DHT22;10826;52.536;13.432;2022-12-16T02:26:14;0.10;41.10
21335;DHT22;10826;52.536;13.432;2022-12-16T02:32:13;0.00;41.10
21335;DHT22;10826;52.536;13.432;2022-12-16T02:34:52;0.10;42.00
21335;DHT22;10826;52.536;13.432;2022-12-16T02:37:51;0.10;41.30
21335;DHT22;10826;52.536;13.432;2022-12-16T02:43:33;0.10;41.20
21335;DHT22;10826;52.536;13.432;2022-12-16T02:46:22;0.10;41.20
21335;DHT22;10826;52.536;13.432;2022-12-16T02:48:52;0.10;41.20
21335;DHT22;10826;52.536;13.432;2022-12-16T02:51:18;0.10;41.20
21335;DHT22;10826;52.536;13.432;2022-12-16T02:53:47;0.10;41.20
21335;DHT22;10826;52.536;13.432;2022-12-16T02:56:47;0.10;41.20
21335;DHT22;10826;52.536;13.432;2022-12-16T02:59:41;0.10;41.00
21335;DHT22;10826;52.536;13.432;2022-12-16T03:02:23;0.10;40.90
21335;DHT22;10826;52.536;13.432;2022-12-16T03:05:08;0.10;40.70
21335;DHT22;10826;52.536;13.432;2022-12-16T03:07:41;0.10;40.70
21335;DHT22;10826;52.536;13.432;2022-12-16T03:10:12;0.00;40.40
21335;DHT22;10826;52.536;13.432;2022-12-16T03:12:43;0.00;40.60
21335;DHT22;10826;52.536;13.432;2022-12-16T03:15:13;0.00;40.70
21335;DHT22;10826;52.536;13.432;2022-12-16T03:17:41;-0.10;40.90
21335;DHT22;10826;52.536;13.432;2022-12-16T03:20:22;-0.10;41.00
21335;DHT22;10826;52.536;13.432;2022-12-16T03:22:56;-0.10;41.10
21335;DHT22;10826;52.536;13.432;2022-12-16T03:25:27;-0.10;41.00
21335;DHT22;10826;52.536;13.432;2022-12-16T03:27:56;-0.10;41.00
21335;DHT22;10826;52.536;13.432;2022-12-16T03:30:35;-0.10;41.00
21335;DHT22;10826;52.536;13.432;2022-12-16T03:33:26;0.00;40.90
21335;DHT22;10826;52.536;13.432;2022-12-16T03:36:01;0.00;40.90
21335;DHT22;10826;52.536;13.432;2022-12-16T03:38:33;-0.10;40.80
21335;DHT22;10826;52.536;13.432;2022-12-16T03:41:02;-0.10;40.80
21335;DHT22;10826;52.536;13.432;2022-12-16T03:43:30;0.00;40.80
21335;DHT22;10826;52.536;13.432;2022-12-16T03:46:00;0.00;40.80
21335;DHT22;10826;52.536;13.432;2022-12-16T03:48:29;0.00;40.80
21335;DHT22;10826;52.536;13.432;2022-12-16T03:50:55;0.00;40.70
21335;DHT22;10826;52.536;13.432;2022-12-16T03:53:21;0.00;40.60
21335;DHT22;10826;52.536;13.432;2022-12-16T03:55:50;0.00;40.40
21335;DHT22;10826;52.536;13.432;2022-12-16T03:58:16;-0.10;40.40
21335;DHT22;10826;52.536;13.432;2022-12-16T04:00:42;-0.20;40.40
21335;DHT22;10826;52.536;13.432;2022-12-16T04:03:08;-0.20;40.60
21335;DHT22;10826;52.536;13.432;2022-12-16T04:05:34;-0.30;40.70
21335;DHT22;10826;52.536;13.432;2022-12-16T04:08:00;-0.30;40.90
21335;DHT22;10826;52.536;13.432;2022-12-16T04:10:26;-0.30;41.10
21335;DHT22;10826;52.536;13.432;2022-12-16T04:13:10;-0.30;41.10
21335;DHT22;10826;52.536;13.432;2022-12-16T04:15:55;-0.30;41.20
21335;DHT22;10826;52.536;13.432;2022-12-16T04:18:40;-0.30;41.00
21335;DHT22;10826;52.536;13.432;2022-12-16T04:21:24;-0.30;41.00
21335;DHT22;10826;52.536;13.432;2022-12-16T04:24:16;-0.30;41.00
21335;DHT22;10826;52.536;13.432;2022-12-16T04:26:44;-0.40;41.00
21335;DHT22;10826;52.536;13.432;2022-12-16T04:29:29;-0.40;41.00
21335;DHT22;10826;52.536;13.432;2022-12-16T04:31:55;-0.40;41.10
21335;DHT22;10826;52.536;13.432;2022-12-16T04:34:21;-0.40;41.10
21335;DHT22;10826;52.536;13.432;2022-12-16T04:36:52;-0.40;41.20
21335;DHT22;10826;52.536;13.432;2022-12-16T04:39:37;-0.40;41.30
21335;DHT22;10826;52.536;13.432;2022-12-16T04:42:22;-0.40;41.40
21335;DHT22;10826;52.536;13.432;2022-12-16T04:45:07;-0.40;41.50
21335;DHT22;10826;52.536;13.432;2022-12-16T04:47:52;-0.40;41.40
21335;DHT22;10826;52.536;13.432;2022-12-16T04:50:38;-0.40;41.30
21335;DHT22;10826;52.536;13.432;2022-12-16T04:53:23;-0.40;41.30
21335;DHT22;10826;52.536;13.432;2022-12-16T04:56:08;-0.40;41.20
21335;DHT22;10826;52.536;13.432;2022-12-16T04:58:53;-0.40;41.10
21335;DHT22;10826;52.536;13.432;2022-12-16T05:01:38;-0.40;41.20
21335;DHT22;10826;52.536;13.432;2022-12-16T05:04:22;-0.40;41.10
21335;DHT22;10826;52.536;13.432;2022-12-16T05:07:07;-0.50;41.00
21335;DHT22;10826;52.536;13.432;2022-12-16T05:09:52;-0.50;41.10
21335;DHT22;10826;52.536;13.432;2022-12-16T05:12:37;-0.60;41.20
21335;DHT22;10826;52.536;13.432;2022-12-16T05:15:21;-0.60;41.30
21335;DHT22;10826;52.536;13.432;2022-12-16T05:18:13;-0.60;41.40
21335;DHT22;10826;52.536;13.432;2022-12-16T05:20:59;-0.60;41.50
21335;DHT22;10826;52.536;13.432;2022-12-16T05:23:44;-0.60;41.60
21335;DHT22;10826;52.536;13.432;2022-12-16T05:26:29;-0.60;41.60
21335;DHT22;10826;52.536;13.432;2022-12-16T05:29:14;-0.50;41.60
21335;DHT22;10826;52.536;13.432;2022-12-16T05:31:58;-0.50;41.70
21335;DHT22;10826;52.536;13.432;2022-12-16T05:34:42;-0.50;41.70
21335;DHT22;10826;52.536;13.432;2022-12-16T05:37:27;-0.50;41.70
21335;DHT22;10826;52.536;13.432;2022-12-16T05:40:12;-0.50;41.70
21335;DHT22;10826;52.536;13.432;2022-12-16T05:42:56;-0.50;41.60
21335;DHT22;10826;52.536;13.432;2022-12-16T05:45:41;-0.50;41.70
21335;DHT22;10826;52.536;13.432;2022-12-16T05:48:26;-0.40;41.60
21335;DHT22;10826;52.536;13.432;2022-12-16T05:51:10;-0.40;41.60
21335;DHT22;10826;52.536;13.432;2022-12-16T05:53:55;-0.50;41.50
21335;DHT22;10826;52.536;13.432;2022-12-16T05:56:40;-0.40;41.50
21335;DHT22;10826;52.536;13.432;2022-12-16T05:59:24;-0.40;41.50
21335;DHT22;10826;52.536;13.432;2022-12-16T06:02:09;-0.50;41.40
21335;DHT22;10826;52.536;13.432;2022-12-16T06:04:53;-0.50;41.40
21335;DHT22;10826;52.536;13.432;2022-12-16T06:07:37;-0.50;41.40
21335;DHT22;10826;52.536;13.432;2022-12-16T06:10:22;-0.50;41.50
21335;DHT22;10826;52.536;13.432;2022-12-16T06:13:06;-0.60;41.60
21335;DHT22;10826;52.536;13.432;2022-12-16T06:15:54;-0.60;41.70
21335;DHT22;10826;52.536;13.432;2022-12-16T06:18:39;-0.60;41.80
21335;DHT22;10826;52.536;13.432;2022-12-16T06:21:23;-0.50;42.00
21335;DHT22;10826;52.536;13.432;2022-12-16T06:24:08;-0.50;42.10
21335;DHT22;10826;52.536;13.432;2022-12-16T06:26:52;-0.50;42.10
21335;DHT22;10826;52.536;13.432;2022-12-16T06:29:36;-0.50;42.10
21335;DHT22;10826;52.536;13.432;2022-12-16T06:32:21;-0.40;42.10
21335;DHT22;10826;52.536;13.432;2022-12-16T06:35:05;-0.40;42.10
21335;DHT22;10826;52.536;13.432;2022-12-16T06:37:49;-0.40;42.00
21335;DHT22;10826;52.536;13.432;2022-12-16T06:40:34;-0.40;42.10
21335;DHT22;10826;52.536;13.432;2022-12-16T06:43:19;-0.40;42.10
21335;DHT22;10826;52.536;13.432;2022-12-16T06:46:06;-0.30;42.20
21335;DHT22;10826;52.536;13.432;2022-12-16T06:48:51;-0.40;42.10
21335;DHT22;10826;52.536;13.432;2022-12-16T06:51:35;-0.30;42.00
21335;DHT22;10826;52.536;13.432;2022-12-16T06:54:20;-0.30;41.90
21335;DHT22;10826;52.536;13.432;2022-12-16T06:57:05;-0.40;41.60
21335;DHT22;10826;52.536;13.432;2022-12-16T06:59:49;-0.40;41.40
21335;DHT22;10826;52.536;13.432;2022-12-16T07:02:50;-0.50;41.40
21335;DHT22;10826;52.536;13.432;2022-12-16T07:05:35;-0.50;41.60
21335;DHT22;10826;52.536;13.432;2022-12-16T07:08:19;-0.50;41.90
21335;DHT22;10826;52.536;13.432;2022-12-16T07:11:04;-0.50;41.80
21335;DHT22;10826;52.536;13.432;2022-12-16T07:13:52;-0.50;41.80
21335;DHT22;10826;52.536;13.432;2022-12-16T07:16:36;-0.50;41.80
21335;DHT22;10826;52.536;13.432;2022-12-16T07:19:20;-0.50;41.70
21335;DHT22;10826;52.536;13.432;2022-12-16T07:22:05;-0.50;41.90
21335;DHT22;10826;52.536;13.432;2022-12-16T07:24:49;-0.60;41.70
21335;DHT22;10826;52.536;13.432;2022-12-16T07:27:33;-0.50;41.90
21335;DHT22;10826;52.536;13.432;2022-12-16T07:30:18;-0.50;41.90
21335;DHT22;10826;52.536;13.432;2022-12-16T07:33:02;-0.50;41.80
21335;DHT22;10826;52.536;13.432;2022-12-16T07:35:47;-0.50;41.60
21335;DHT22;10826;52.536;13.432;2022-12-16T07:38:31;-0.50;41.70
21335;DHT22;10826;52.536;13.432;2022-12-16T07:41:16;-0.50;41.70
21335;DHT22;10826;52.536;13.432;2022-12-16T07:44:00;-0.50;41.60
21335;DHT22;10826;52.536;13.432;2022-12-16T07:46:45;-0.50;41.50
21335;DHT22;10826;52.536;13.432;2022-12-16T07:49:32;-0.40;41.50
21335;DHT22;10826;52.536;13.432;2022-12-16T07:52:18;-0.50;41.50
21335;DHT22;10826;52.536;13.432;2022-12-16T07:55:03;-0.40;41.50
21335;DHT22;10826;52.536;13.432;2022-12-16T07:57:55;-0.40;41.40
21335;DHT22;10826;52.536;13.432;2022-12-16T08:00:40;-0.50;41.40
21335;DHT22;10826;52.536;13.432;2022-12-16T08:03:24;-0.40;41.50
21335;DHT22;10826;52.536;13.432;2022-12-16T08:06:09;-0.40;41.60
21335;DHT22;10826;52.536;13.432;2022-12-16T08:08:54;-0.40;41.60
21335;DHT22;10826;52.536;13.432;2022-12-16T08:11:38;-0.40;41.60
21335;DHT22;10826;52.536;13.432;2022-12-16T08:14:23;-0.30;41.60
21335;DHT22;10826;52.536;13.432;2022-12-16T08:17:07;-0.30;41.70
21335;DHT22;10826;52.536;13.432;2022-12-16T08:19:51;-0.30;41.80
21335;DHT22;10826;52.536;13.432;2022-12-16T08:22:36;-0.20;41.90
21335;DHT22;10826;52.536;13.432;2022-12-16T08:25:22;-0.10;41.90
21335;DHT22;10826;52.536;13.432;2022-12-16T08:28:06;-0.10;41.60
21335;DHT22;10826;52.536;13.432;2022-12-16T08:30:51;0.00;41.60
21335;DHT22;10826;52.536;13.432;2022-12-16T08:33:35;0.10;41.60
21335;DHT22;10826;52.536;13.432;2022-12-16T08:36:20;0.20;41.60
21335;DHT22;10826;52.536;13.432;2022-12-16T08:39:05;0.30;41.50
21335;DHT22;10826;52.536;13.432;2022-12-16T08:41:52;0.40;41.30
21335;DHT22;10826;52.536;13.432;2022-12-16T08:44:37;0.50;41.10
21335;DHT22;10826;52.536;13.432;2022-12-16T08:47:21;0.60;40.90
21335;DHT22;10826;52.536;13.432;2022-12-16T08:50:06;0.70;40.80
21335;DHT22;10826;52.536;13.432;2022-12-16T08:52:51;0.70;40.60
21335;DHT22;10826;52.536;13.432;2022-12-16T08:55:37;0.80;40.40
21335;DHT22;10826;52.536;13.432;2022-12-16T08:58:22;0.70;40.40
21335;DHT22;10826;52.536;13.432;2022-12-16T09:01:06;0.80;40.60
21335;DHT22;10826;52.536;13.432;2022-12-16T09:03:51;0.80;40.50
21335;DHT22;10826;52.536;13.432;2022-12-16T09:06:35;0.90;40.50
21335;DHT22;10826;52.536;13.432;2022-12-16T09:09:19;0.90;40.40
21335;DHT22;10826;52.536;13.432;2022-12-16T09:12:03;1.00;40.20
21335;DHT22;10826;52.536;13.432;2022-12-16T09:14:48;1.00;40.40
21335;DHT22;10826;52.536;13.432;2022-12-16T09:17:32;1.10;40.50
21335;DHT22;10826;52.536;13.432;2022-12-16T09:20:17;1.10;40.20
21335;DHT22;10826;52.536;13.432;2022-12-16T09:23:03;1.20;40.00
21335;DHT22;10826;52.536;13.432;2022-12-16T09:25:47;1.20;40.00
21335;DHT22;10826;52.536;13.432;2022-12-16T09:28:32;1.30;40.00
21335;DHT22;10826;52.536;13.432;2022-12-16T09:31:16;1.30;39.80
21335;DHT22;10826;52.536;13.432;2022-12-16T09:34:01;1.30;39.70
21335;DHT22;10826;52.536;13.432;2022-12-16T09:36:45;1.40;39.50
21335;DHT22;10826;52.536;13.432;2022-12-16T09:39:30;1.40;39.60
21335;DHT22;10826;52.536;13.432;2022-12-16T09:42:29;1.40;39.70
21335;DHT22;10826;52.536;13.432;2022-12-16T09:45:47;1.40;39.60
21335;DHT22;10826;52.536;13.432;2022-12-16T09:48:42;1.50;39.60
21335;DHT22;10826;52.536;13.432;2022-12-16T09:51:36;1.50;39.80
21335;DHT22;10826;52.536;13.432;2022-12-16T09:54:25;1.50;40.00
21335;DHT22;10826;52.536;13.432;2022-12-16T09:57:13;1.60;39.70
21335;DHT22;10826;52.536;13.432;2022-12-16T10:00:03;1.70;39.70
21335;DHT22;10826;52.536;13.432;2022-12-16T10:02:50;1.80;39.80
21335;DHT22;10826;52.536;13.432;2022-12-16T10:05:46;1.80;39.60
21335;DHT22;10826;52.536;13.432;2022-12-16T10:08:58;1.90;39.60
21335;DHT22;10826;52.536;13.432;2022-12-16T10:22:14;2.20;39.40
21335;DHT22;10826;52.536;13.432;2022-12-16T10:25:13;2.30;39.50
21335;DHT22;10826;52.536;13.432;2022-12-16T10:28:10;2.40;39.40
21335;DHT22;10826;52.536;13.432;2022-12-16T10:30:58;2.40;39.30
21335;DHT22;10826;52.536;13.432;2022-12-16T10:33:48;2.50;39.30
21335;DHT22;10826;52.536;13.432;2022-12-16T10:36:35;2.60;39.40
21335;DHT22;10826;52.536;13.432;2022-12-16T10:39:39;2.70;39.10
21335;DHT22;10826;52.536;13.432;2022-12-16T10:42:35;2.70;39.00
21335;DHT22;10826;52.536;13.432;2022-12-16T10:45:40;2.80;38.90
21335;DHT22;10826;52.536;13.432;2022-12-16T10:48:30;2.90;38.60
21335;DHT22;10826;52.536;13.432;2022-12-16T10:51:18;3.00;38.50
21335;DHT22;10826;52.536;13.432;2022-12-16T10:54:29;3.00;38.50
21335;DHT22;10826;52.536;13.432;2022-12-16T11:00:46;3.00;38.30
21335;DHT22;10826;52.536;13.432;2022-12-16T11:03:34;3.00;38.40
21335;DHT22;10826;52.536;13.432;2022-12-16T11:06:40;3.00;38.60
21335;DHT22;10826;52.536;13.432;2022-12-16T11:09:32;3.00;38.70
21335;DHT22;10826;52.536;13.432;2022-12-16T11:12:28;3.10;38.60
21335;DHT22;10826;52.536;13.432;2022-12-16T11:15:29;3.10;38.70
21335;DHT22;10826;52.536;13.432;2022-12-16T11:18:21;3.10;38.80
21335;DHT22;10826;52.536;13.432;2022-12-16T11:21:17;3.10;38.80
21335;DHT22;10826;52.536;13.432;2022-12-16T11:24:16;3.10;38.60
21335;DHT22;10826;52.536;13.432;2022-12-16T11:30:15;3.20;38.80
21335;DHT22;10826;52.536;13.432;2022-12-16T11:33:10;3.20;38.70
21335;DHT22;10826;52.536;13.432;2022-12-16T11:36:22;3.40;38.90
21335;DHT22;10826;52.536;13.432;2022-12-16T11:39:14;3.50;38.90
21335;DHT22;10826;52.536;13.432;2022-12-16T11:42:02;3.60;38.90
21335;DHT22;10826;52.536;13.432;2022-12-16T11:44:52;3.70;38.80
21335;DHT22;10826;52.536;13.432;2022-12-16T11:47:40;3.80;38.70
21335;DHT22;10826;52.536;13.432;2022-12-16T11:50:32;3.90;38.60
21335;DHT22;10826;52.536;13.432;2022-12-16T11:53:33;3.90;38.60
21335;DHT22;10826;52.536;13.432;2022-12-16T11:56:32;4.00;38.50
21335;DHT22;10826;52.536;13.432;2022-12-16T12:02:43;4.10;38.30
21335;DHT22;10826;52.536;13.432;2022-12-16T12:06:02;4.10;38.50
21335;DHT22;10826;52.536;13.432;2022-12-16T12:09:24;4.00;38.40
21335;DHT22;10826;52.536;13.432;2022-12-16T12:15:35;3.90;38.50
21335;DHT22;10826;52.536;13.432;2022-12-16T12:18:42;3.70;38.60
21335;DHT22;10826;52.536;13.432;2022-12-16T12:21:44;3.70;39.00
21335;DHT22;10826;52.536;13.432;2022-12-16T12:28:31;3.60;39.20
21335;DHT22;10826;52.536;13.432;2022-12-16T12:32:18;3.60;39.40
21335;DHT22;10826;52.536;13.432;2022-12-16T12:48:24;3.80;40.00
21335;DHT22;10826;52.536;13.432;2022-12-16T12:54:38;3.90;40.00
21335;DHT22;10826;52.536;13.432;2022-12-16T12:57:32;3.90;40.00
21335;DHT22;10826;52.536;13.432;2022-12-16T13:00:21;3.90;40.20
21335;DHT22;10826;52.536;13.432;2022-12-16T13:06:19;4.00;40.30
21335;DHT22;10826;52.536;13.432;2022-12-16T13:12:30;4.10;40.40
21335;DHT22;10826;52.536;13.432;2022-12-16T13:15:20;4.10;40.20
21335;DHT22;10826;52.536;13.432;2022-12-16T13:18:25;4.00;40.10
21335;DHT22;10826;52.536;13.432;2022-12-16T13:24:33;4.00;40.20
21335;DHT22;10826;52.536;13.432;2022-12-16T13:27:21;4.00;40.20
21335;DHT22;10826;52.536;13.432;2022-12-16T13:33:04;4.00;40.10
21335;DHT22;10826;52.536;13.432;2022-12-16T13:35:58;3.90;40.10
21335;DHT22;10826;52.536;13.432;2022-12-16T13:38:48;3.90;40.20
21335;DHT22;10826;52.536;13.432;2022-12-16T13:44:55;3.80;40.40
21335;DHT22;10826;52.536;13.432;2022-12-16T13:50:39;3.90;40.50
21335;DHT22;10826;52.536;13.432;2022-12-16T13:53:32;3.80;40.30
21335;DHT22;10826;52.536;13.432;2022-12-16T13:56:37;3.90;40.50
21335;DHT22;10826;52.536;13.432;2022-12-16T13:59:27;3.80;40.40
21335;DHT22;10826;52.536;13.432;2022-12-16T14:02:38;3.70;40.40
21335;DHT22;10826;52.536;13.432;2022-12-16T14:05:41;3.70;40.60
21335;DHT22;10826;52.536;13.432;2022-12-16T14:08:29;3.60;40.60
21335;DHT22;10826;52.536;13.432;2022-12-16T14:11:43;3.60;40.70
21335;DHT22;10826;52.536;13.432;2022-12-16T14:14:43;3.60;40.90
21335;DHT22;10826;52.536;13.432;2022-12-16T14:17:40;3.60;41.00
21335;DHT22;10826;52.536;13.432;2022-12-16T14:20:48;3.60;41.10
21335;DHT22;10826;52.536;13.432;2022-12-16T14:23:46;3.50;41.20
21335;DHT22;10826;52.536;13.432;2022-12-16T14:26:36;3.50;41.50
21335;DHT22;10826;52.536;13.432;2022-12-16T14:29:27;3.40;41.60
21335;DHT22;10826;52.536;13.432;2022-12-16T14:32:27;3.40;41.80
21335;DHT22;10826;52.536;13.432;2022-12-16T14:35:18;3.30;42.00
21335;DHT22;10826;52.536;13.432;2022-12-16T14:38:34;3.30;42.00
21335;DHT22;10826;52.536;13.432;2022-12-16T14:41:23;3.20;41.90
21335;DHT22;10826;52.536;13.432;2022-12-16T14:44:21;3.20;41.80
21335;DHT22;10826;52.536;13.432;2022-12-16T14:47:16;3.10;41.90
21335;DHT22;10826;52.536;13.432;2022-12-16T14:50:18;3.00;41.90
21335;DHT22;10826;52.536;13.432;2022-12-16T14:53:21;3.00;42.10
21335;DHT22;10826;52.536;13.432;2022-12-16T14:56:29;3.00;42.20
21335;DHT22;10826;52.536;13.432;2022-12-16T14:59:18;3.00;42.20
21335;DHT22;10826;52.536;13.432;2022-12-16T15:02:19;3.00;42.10
21335;DHT22;10826;52.536;13.432;2022-12-16T15:05:14;3.00;42.10
21335;DHT22;10826;52.536;13.432;2022-12-16T15:07:59;2.90;42.20
21335;DHT22;10826;52.536;13.432;2022-12-16T15:10:44;2.90;42.20
21335;DHT22;10826;52.536;13.432;2022-12-16T15:13:30;2.80;42.20
21335;DHT22;10826;52.536;13.432;2022-12-16T15:16:23;2.80;43.20
21335;DHT22;10826;52.536;13.432;2022-12-16T15:19:21;2.80;42.50
21335;DHT22;10826;52.536;13.432;2022-12-16T15:22:14;2.80;42.60
21335;DHT22;10826;52.536;13.432;2022-12-16T15:25:00;2.80;42.50
21335;DHT22;10826;52.536;13.432;2022-12-16T15:27:53;2.80;42.60
21335;DHT22;10826;52.536;13.432;2022-12-16T15:30:44;2.80;42.60
21335;DHT22;10826;52.536;13.432;2022-12-16T15:33:32;2.90;42.60
21335;DHT22;10826;52.536;13.432;2022-12-16T15:36:33;2.90;42.40
21335;DHT22;10826;52.536;13.432;2022-12-16T15:39:35;2.90;42.20
21335;DHT22;10826;52.536;13.432;2022-12-16T15:42:28;2.90;42.20
21335;DHT22;10826;52.536;13.432;2022-12-16T15:45:26;2.90;42.20
21335;DHT22;10826;52.536;13.432;2022-12-16T15:48:25;2.90;42.30
21335;DHT22;10826;52.536;13.432;2022-12-16T15:51:38;2.90;42.40
21335;DHT22;10826;52.536;13.432;2022-12-16T15:54:27;2.90;42.20
21335;DHT22;10826;52.536;13.432;2022-12-16T15:57:31;2.90;42.20
21335;DHT22;10826;52.536;13.432;2022-12-16T16:00:34;3.00;42.10
21335;DHT22;10826;52.536;13.432;2022-12-16T16:03:37;3.10;41.90
21335;DHT22;10826;52.536;13.432;2022-12-16T16:06:24;3.10;41.80
21335;DHT22;10826;52.536;13.432;2022-12-16T16:09:13;3.10;41.60
21335;DHT22;10826;52.536;13.432;2022-12-16T16:12:09;3.10;41.60
21335;DHT22;10826;52.536;13.432;2022-12-16T16:14:58;3.00;41.50
21335;DHT22;10826;52.536;13.432;2022-12-16T16:17:43;3.10;41.60
21335;DHT22;10826;52.536;13.432;2022-12-16T16:20:30;3.10;41.60
21335;DHT22;10826;52.536;13.432;2022-12-16T16:23:15;3.10;41.50
21335;DHT22;10826;52.536;13.432;2022-12-16T16:25:59;3.10;41.50
21335;DHT22;10826;52.536;13.432;2022-12-16T16:28:44;3.10;41.30
21335;DHT22;10826;52.536;13.432;2022-12-16T16:31:28;3.20;41.40
21335;DHT22;10826;52.536;13.432;2022-12-16T16:34:14;3.20;41.30
21335;DHT22;10826;52.536;13.432;2022-12-16T16:36:58;3.10;41.40
21335;DHT22;10826;52.536;13.432;2022-12-16T16:39:43;3.10;41.40
21335;DHT22;10826;52.536;13.432;2022-12-16T16:42:28;3.10;41.40
21335;DHT22;10826;52.536;13.432;2022-12-16T16:45:13;3.10;41.40
21335;DHT22;10826;52.536;13.432;2022-12-16T16:48:18;3.10;41.30
21335;DHT22;10826;52.536;13.432;2022-12-16T16:51:04;3.00;41.30
21335;DHT22;10826;52.536;13.432;2022-12-16T16:53:49;3.00;41.40
21335;DHT22;10826;52.536;13.432;2022-12-16T16:56:35;3.00;42.30
21335;DHT22;10826;52.536;13.432;2022-12-16T16:59:22;3.10;41.60
21335;DHT22;10826;52.536;13.432;2022-12-16T17:02:19;3.10;41.60
21335;DHT22;10826;52.536;13.432;2022-12-16T17:05:06;3.20;42.30
21335;DHT22;10826;52.536;13.432;2022-12-16T17:07:51;3.20;41.50
21335;DHT22;10826;52.536;13.432;2022-12-16T17:10:36;3.20;41.70
21335;DHT22;10826;52.536;13.432;2022-12-16T17:13:20;3.20;41.60
21335;DHT22;10826;52.536;13.432;2022-12-16T17:16:05;3.00;41.80
21335;DHT22;10826;52.536;13.432;2022-12-16T17:18:49;2.90;42.20
21335;DHT22;10826;52.536;13.432;2022-12-16T17:21:34;2.90;42.50
21335;DHT22;10826;52.536;13.432;2022-12-16T17:24:18;2.80;42.80
21335;DHT22;10826;52.536;13.432;2022-12-16T17:27:23;2.70;43.10
21335;DHT22;10826;52.536;13.432;2022-12-16T17:30:21;2.70;43.20
21335;DHT22;10826;52.536;13.432;2022-12-16T17:33:05;2.60;43.50
21335;DHT22;10826;52.536;13.432;2022-12-16T17:35:50;2.60;43.60
21335;DHT22;10826;52.536;13.432;2022-12-16T17:38:39;2.60;43.80
21335;DHT22;10826;52.536;13.432;2022-12-16T17:41:30;2.70;43.90
21335;DHT22;10826;52.536;13.432;2022-12-16T17:44:16;2.70;44.00
21335;DHT22;10826;52.536;13.432;2022-12-16T17:47:01;2.80;43.90
21335;DHT22;10826;52.536;13.432;2022-12-16T17:49:46;2.80;43.90
21335;DHT22;10826;52.536;13.432;2022-12-16T17:52:31;2.90;43.80
21335;DHT22;10826;52.536;13.432;2022-12-16T17:55:15;2.90;43.80
21335;DHT22;10826;52.536;13.432;2022-12-16T17:58:02;3.00;43.80
21335;DHT22;10826;52.536;13.432;2022-12-16T18:01:00;3.00;43.90
21335;DHT22;10826;52.536;13.432;2022-12-16T18:03:49;3.00;44.00
21335;DHT22;10826;52.536;13.432;2022-12-16T18:06:34;3.00;43.80
21335;DHT22;10826;52.536;13.432;2022-12-16T18:09:29;3.10;43.70
21335;DHT22;10826;52.536;13.432;2022-12-16T18:12:14;3.00;43.60
21335;DHT22;10826;52.536;13.432;2022-12-16T18:14:59;3.00;43.60
21335;DHT22;10826;52.536;13.432;2022-12-16T18:17:46;3.00;43.80
21335;DHT22;10826;52.536;13.432;2022-12-16T18:20:32;3.00;43.90
21335;DHT22;10826;52.536;13.432;2022-12-16T18:23:18;2.90;44.10
21335;DHT22;10826;52.536;13.432;2022-12-16T18:26:06;2.90;44.20
21335;DHT22;10826;52.536;13.432;2022-12-16T18:28:52;2.90;44.30
21335;DHT22;10826;52.536;13.432;2022-12-16T18:31:42;2.90;44.40
21335;DHT22;10826;52.536;13.432;2022-12-16T18:34:26;2.90;44.40